Time;durP1;ratioP1;P1;durP2;ratioP2;P2;SDS_P1;SDS_P2;PMS_P1;PMS_P2;Temp;Humidity;BMP_temperature;BMP_pressure;BME280_temperature;BME280_humidity;BME280_pressure;Samples;Min_cycle;Max_cycle;Signal;HPM_P1;HPM_P2
2022/11/25 00:00:24;;;;;;;5.93;1.92;;;8.40;99.90;;;;;;5099825;28;20024;-71
2022/11/25 00:02:51;;;;;;;10.88;2.45;;;8.50;99.90;;;;;;5072321;28;20023;-72
2022/11/25 00:05:16;;;;;;;11.85;2.67;;;8.50;99.90;;;;;;5091887;28;20032;-72
2022/11/25 00:07:42;;;;;;;10.43;2.60;;;8.50;99.90;;;;;;5091254;28;20088;-71
2022/11/25 00:10:08;;;;;;;11.25;2.55;;;8.50;99.90;;;;;;5091085;28;20016;-69
2022/11/25 00:12:34;;;;;;;9.45;2.75;;;8.50;99.90;;;;;;5091316;28;20035;-73
2022/11/25 00:15:00;;;;;;;12.43;2.70;;;8.50;99.90;;;;;;5091570;28;20024;-72
2022/11/25 00:17:25;;;;;;;9.75;2.03;;;8.60;99.90;;;;;;5096280;28;20032;-72
2022/11/25 00:19:51;;;;;;;11.82;3.45;;;8.60;99.90;;;;;;5095244;28;20035;-73
2022/11/25 00:22:16;;;;;;;11.75;2.67;;;8.60;99.90;;;;;;5090597;28;20099;-72
2022/11/25 00:24:42;;;;;;;11.10;3.15;;;8.60;99.90;;;;;;5094911;28;20512;-71
2022/11/25 00:27:08;;;;;;;17.00;3.70;;;8.70;99.90;;;;;;5095460;28;20028;-70
2022/11/25 00:29:33;;;;;;;10.15;3.03;;;8.60;99.90;;;;;;5094637;28;20027;-67
2022/11/25 00:31:59;;;;;;;9.70;2.88;;;8.60;99.90;;;;;;5095283;28;20031;-74
2022/11/25 00:34:25;;;;;;;8.35;2.70;;;8.60;99.90;;;;;;5094919;28;20020;-73
2022/11/25 00:36:52;;;;;;;7.65;2.53;;;8.50;99.90;;;;;;5101426;28;20105;-73
2022/11/25 00:39:18;;;;;;;7.55;3.05;;;8.50;99.90;;;;;;5095433;28;20028;-71
2022/11/25 00:44:36;;;;;;;11.68;3.15;;;8.40;99.90;;;;;;5094676;28;20108;-71
2022/11/25 00:47:04;;;;;;;8.25;3.35;;;8.40;99.90;;;;;;5095470;28;20023;-72
2022/11/25 00:49:30;;;;;;;8.93;3.03;;;8.40;99.90;;;;;;5076550;28;20024;-72
2022/11/25 00:51:56;;;;;;;7.10;2.13;;;8.40;99.90;;;;;;5095245;28;20103;-73
2022/11/25 00:54:22;;;;;;;6.30;1.90;;;8.40;99.90;;;;;;5095508;28;20108;-66
2022/11/25 00:56:47;;;;;;;8.23;2.17;;;8.40;99.90;;;;;;5095164;28;20491;-73
2022/11/25 00:59:13;;;;;;;14.88;4.07;;;8.40;99.90;;;;;;5076219;28;20039;-72
2022/11/25 01:01:39;;;;;;;15.00;3.83;;;8.40;99.90;;;;;;5094681;28;20096;-72
2022/11/25 01:04:06;;;;;;;7.93;2.90;;;8.40;99.90;;;;;;5095223;28;20026;-73
2022/11/25 01:06:32;;;;;;;11.15;3.58;;;8.40;99.90;;;;;;5076468;28;20035;-74
2022/11/25 01:08:58;;;;;;;10.77;3.08;;;8.40;99.90;;;;;;5077022;28;20474;-72
2022/11/25 01:11:24;;;;;;;14.30;2.40;;;8.40;99.90;;;;;;5094530;28;20012;-65
2022/11/25 01:13:50;;;;;;;7.10;2.58;;;8.40;99.90;;;;;;5094849;28;20057;-70
2022/11/25 01:16:19;;;;;;;5.70;2.30;;;8.40;99.90;;;;;;5094794;28;20044;-68
2022/11/25 01:18:45;;;;;;;10.98;2.45;;;8.40;99.90;;;;;;5093712;28;20035;-72
2022/11/25 01:21:15;;;;;;;8.93;2.50;;;8.40;99.90;;;;;;5095243;28;20019;-69
2022/11/25 01:23:41;;;;;;;6.15;2.28;;;8.40;99.90;;;;;;5094422;28;20043;-69
2022/11/25 01:26:10;;;;;;;8.88;2.50;;;8.40;99.90;;;;;;5094064;28;20095;-71
2022/11/25 01:28:36;;;;;;;6.95;2.10;;;8.40;99.90;;;;;;5057008;28;20086;-70
2022/11/25 01:31:03;;;;;;;6.18;2.05;;;8.40;99.90;;;;;;5074551;28;20115;-72
2022/11/25 01:33:33;;;;;;;10.10;2.38;;;8.40;99.90;;;;;;5073302;28;20030;-71
2022/11/25 01:36:08;;;;;;;8.85;2.55;;;8.40;99.90;;;;;;5073398;28;20055;-72
2022/11/25 01:38:35;;;;;;;11.18;2.67;;;8.40;99.90;;;;;;5073771;28;20037;-72
2022/11/25 01:41:01;;;;;;;8.82;2.00;;;8.40;99.90;;;;;;5073591;28;20021;-69
2022/11/25 01:43:28;;;;;;;9.45;2.33;;;8.40;99.90;;;;;;5089502;28;20028;-71
2022/11/25 01:46:06;;;;;;;5.47;1.95;;;8.40;99.90;;;;;;5074201;28;20036;-72
2022/11/25 01:48:48;;;;;;;6.50;2.45;;;8.50;99.90;;;;;;5073447;28;20023;-71
2022/11/25 01:51:24;;;;;;;9.13;3.28;;;8.50;99.90;;;;;;5074237;28;20016;-73
2022/11/25 01:53:51;;;;;;;9.45;3.00;;;8.50;99.90;;;;;;5073232;28;20111;-70
2022/11/25 01:56:17;;;;;;;10.18;2.92;;;8.50;99.90;;;;;;5087993;28;20024;-73
2022/11/25 01:58:45;;;;;;;8.88;2.10;;;8.50;99.90;;;;;;5075247;28;20103;-69
2022/11/25 02:01:11;;;;;;;14.60;2.95;;;8.50;99.90;;;;;;5093354;28;20102;-73
2022/11/25 02:03:41;;;;;;;10.65;2.65;;;8.60;99.90;;;;;;5093495;28;20470;-73
2022/11/25 02:06:20;;;;;;;8.68;2.15;;;8.60;99.90;;;;;;5093866;28;20024;-73
2022/11/25 02:08:49;;;;;;;11.25;2.83;;;8.60;99.90;;;;;;5092854;28;20073;-72
2022/11/25 02:11:15;;;;;;;8.82;2.63;;;8.60;99.90;;;;;;5093531;28;20040;-73
2022/11/25 02:13:42;;;;;;;6.88;2.00;;;8.60;99.90;;;;;;5093553;28;20031;-72
2022/11/25 02:16:08;;;;;;;13.18;2.55;;;8.70;99.90;;;;;;5092820;28;20495;-73
2022/11/25 02:18:33;;;;;;;15.20;3.33;;;8.70;99.90;;;;;;5093539;28;20108;-72
2022/11/25 02:20:59;;;;;;;9.50;2.50;;;8.70;99.90;;;;;;5092506;28;20093;-71
2022/11/25 02:23:50;;;;;;;9.13;1.90;;;8.70;99.90;;;;;;5092327;28;20032;-71
2022/11/25 02:26:16;;;;;;;5.70;2.33;;;8.70;99.90;;;;;;5109219;28;20024;-68
2022/11/25 02:28:42;;;;;;;9.77;2.88;;;8.70;99.90;;;;;;5092875;28;20028;-70
2022/11/25 02:31:08;;;;;;;6.95;2.03;;;8.70;99.90;;;;;;5092479;28;20024;-72
2022/11/25 02:33:33;;;;;;;9.02;2.58;;;8.80;99.90;;;;;;5074508;28;20045;-73
2022/11/25 02:36:04;;;;;;;9.18;2.92;;;8.80;99.90;;;;;;5092422;28;20032;-74
2022/11/25 02:38:39;;;;;;;5.17;2.37;;;8.80;99.90;;;;;;5092597;28;20077;-72
2022/11/25 02:41:13;;;;;;;9.25;2.53;;;8.70;99.90;;;;;;5093058;28;20622;-73
2022/11/25 02:43:40;;;;;;;8.20;3.05;;;8.70;99.90;;;;;;5091752;28;20020;-70
2022/11/25 02:46:09;;;;;;;8.27;3.58;;;8.70;99.90;;;;;;5092708;28;20028;-72
2022/11/25 02:48:37;;;;;;;16.73;4.10;;;8.70;99.90;;;;;;5107962;28;20024;-71
2022/11/25 02:51:04;;;;;;;8.77;3.58;;;8.80;99.90;;;;;;5091757;28;20612;-66
2022/11/25 02:53:30;;;;;;;14.55;3.67;;;8.80;99.90;;;;;;5092205;28;20046;-71
2022/11/25 02:55:55;;;;;;;9.00;3.30;;;8.80;99.90;;;;;;5092636;28;20383;-73
2022/11/25 02:58:22;;;;;;;10.35;2.55;;;8.80;99.90;;;;;;5073922;28;20028;-66
2022/11/25 03:00:47;;;;;;;10.68;3.08;;;8.80;99.90;;;;;;5092278;28;20023;-72
2022/11/25 03:03:13;;;;;;;6.40;2.83;;;8.80;99.90;;;;;;5090076;28;20104;-71
2022/11/25 03:05:39;;;;;;;6.30;2.50;;;8.80;99.90;;;;;;5091568;28;20475;-71
2022/11/25 03:08:05;;;;;;;4.80;2.15;;;8.80;99.90;;;;;;5073908;28;20435;-68
2022/11/25 03:10:31;;;;;;;5.90;2.55;;;8.80;99.90;;;;;;5073789;28;20034;-67
2022/11/25 03:12:57;;;;;;;6.18;2.13;;;8.80;99.90;;;;;;5091767;28;20024;-69
2022/11/25 03:15:23;;;;;;;12.18;2.97;;;8.90;99.90;;;;;;5091672;28;20106;-68
2022/11/25 03:17:48;;;;;;;9.77;2.60;;;8.90;99.90;;;;;;5091821;28;20039;-71
2022/11/25 03:20:14;;;;;;;8.75;2.47;;;8.90;99.90;;;;;;5091781;28;20392;-72
2022/11/25 03:22:42;;;;;;;8.88;2.80;;;8.90;99.90;;;;;;5091893;28;20369;-72
2022/11/25 03:25:08;;;;;;;9.82;2.80;;;8.90;99.90;;;;;;5073795;28;20071;-72
2022/11/25 03:27:34;;;;;;;10.80;2.58;;;8.90;99.90;;;;;;5091987;28;20020;-70
2022/11/25 03:30:00;;;;;;;12.73;2.95;;;8.90;99.90;;;;;;5092288;28;20395;-72
2022/11/25 03:32:26;;;;;;;5.53;2.13;;;8.80;99.90;;;;;;5091546;28;20020;-72
2022/11/25 03:34:51;;;;;;;12.35;2.47;;;8.80;99.90;;;;;;5091924;28;20383;-69
2022/11/25 03:37:18;;;;;;;8.50;2.63;;;8.80;99.90;;;;;;5092121;28;20027;-72
2022/11/25 03:39:44;;;;;;;9.85;2.55;;;8.80;99.90;;;;;;5072977;28;20040;-71
2022/11/25 03:42:09;;;;;;;7.25;2.40;;;8.80;99.90;;;;;;5074147;28;20491;-72
2022/11/25 03:44:35;;;;;;;17.15;2.90;;;8.70;99.90;;;;;;5091857;28;20077;-71
2022/11/25 03:47:01;;;;;;;10.30;3.90;;;8.70;99.90;;;;;;5073303;28;20027;-71
2022/11/25 03:49:26;;;;;;;11.77;3.22;;;8.70;99.90;;;;;;5091749;28;20028;-72
2022/11/25 03:51:52;;;;;;;13.02;3.35;;;8.70;99.90;;;;;;5107544;28;20024;-69
2022/11/25 03:54:17;;;;;;;11.43;4.03;;;8.70;99.90;;;;;;5091583;28;20024;-73
2022/11/25 03:56:43;;;;;;;10.10;4.43;;;8.70;99.90;;;;;;5091511;28;20036;-72
2022/11/25 03:59:09;;;;;;;15.55;4.57;;;8.70;99.90;;;;;;5095847;28;20496;-73
2022/11/25 04:01:34;;;;;;;10.27;4.00;;;8.70;99.90;;;;;;5077229;28;20346;-71
2022/11/25 04:04:00;;;;;;;13.00;3.17;;;8.70;99.90;;;;;;5096058;28;20031;-72
2022/11/25 04:06:25;;;;;;;7.95;3.17;;;8.70;99.90;;;;;;5095752;28;20035;-70
2022/11/25 04:08:51;;;;;;;10.25;3.30;;;8.70;99.90;;;;;;5095472;28;20024;-72
2022/11/25 04:11:17;;;;;;;6.35;2.47;;;8.70;99.90;;;;;;5078098;28;20032;-73
2022/11/25 04:13:42;;;;;;;11.13;3.47;;;8.80;99.90;;;;;;5095676;28;20030;-67
2022/11/25 04:16:21;;;;;;;11.77;3.88;;;8.80;99.90;;;;;;5095123;28;20399;-73
2022/11/25 04:18:47;;;;;;;13.63;4.85;;;8.70;99.90;;;;;;5094283;28;20048;-70
2022/11/25 04:21:12;;;;;;;11.57;4.90;;;8.70;99.90;;;;;;5094255;28;20015;-73
2022/11/25 04:23:38;;;;;;;11.35;3.60;;;8.70;99.90;;;;;;5076216;28;20020;-73
2022/11/25 04:26:03;;;;;;;7.10;2.88;;;8.70;99.90;;;;;;5095689;28;20024;-70
2022/11/25 04:28:29;;;;;;;7.55;2.60;;;8.70;99.90;;;;;;5094777;28;20026;-72
2022/11/25 04:30:55;;;;;;;7.00;3.10;;;8.70;99.90;;;;;;5095631;28;20020;-73
2022/11/25 04:33:20;;;;;;;13.52;4.65;;;8.60;99.90;;;;;;5095540;28;20020;-73
2022/11/25 04:35:46;;;;;;;12.68;4.38;;;8.60;99.90;;;;;;5094506;28;20623;-72
2022/11/25 04:38:12;;;;;;;11.77;4.88;;;8.60;99.90;;;;;;5095482;28;20028;-73
2022/11/25 04:40:37;;;;;;;12.75;5.18;;;8.60;99.90;;;;;;5094950;28;20055;-72
2022/11/25 04:43:03;;;;;;;17.30;5.50;;;8.60;99.90;;;;;;5094766;28;20027;-74
2022/11/25 04:45:29;;;;;;;10.73;5.15;;;8.60;99.90;;;;;;5076883;28;20556;-72
2022/11/25 04:47:54;;;;;;;10.90;4.18;;;8.60;99.90;;;;;;5095000;28;20119;-72
2022/11/25 04:50:22;;;;;;;10.32;3.97;;;8.60;99.90;;;;;;5094623;28;20109;-73
2022/11/25 04:52:48;;;;;;;9.50;3.40;;;8.60;99.90;;;;;;5095099;28;20035;-72
2022/11/25 04:55:13;;;;;;;10.18;4.13;;;8.60;99.90;;;;;;5110861;28;20024;-73
2022/11/25 04:57:39;;;;;;;12.82;4.90;;;8.60;99.90;;;;;;5094127;28;20111;-69
2022/11/25 05:00:06;;;;;;;11.20;5.05;;;8.60;99.90;;;;;;5094889;28;20472;-70
2022/11/25 05:02:31;;;;;;;11.50;4.80;;;8.60;99.90;;;;;;5093862;28;20027;-63
2022/11/25 05:04:57;;;;;;;15.32;5.65;;;8.60;99.90;;;;;;5093616;28;20016;-68
2022/11/25 05:07:25;;;;;;;13.52;4.68;;;8.70;99.90;;;;;;5093983;28;20495;-65
2022/11/25 05:09:51;;;;;;;13.32;4.28;;;8.70;99.90;;;;;;5094077;28;20095;-69
2022/11/25 05:12:19;;;;;;;10.50;3.60;;;8.70;99.90;;;;;;5093937;28;20442;-73
2022/11/25 05:14:46;;;;;;;12.27;4.20;;;8.70;99.90;;;;;;5094303;28;20150;-72
2022/11/25 05:17:23;;;;;;;10.23;3.38;;;8.70;99.90;;;;;;5094804;28;20127;-66
2022/11/25 05:19:49;;;;;;;7.68;3.00;;;8.70;99.90;;;;;;5075806;28;20028;-66
2022/11/25 05:22:17;;;;;;;11.18;3.17;;;8.70;99.90;;;;;;5076356;28;20379;-72
2022/11/25 05:24:44;;;;;;;9.55;2.90;;;8.70;99.90;;;;;;5093639;28;20841;-70
2022/11/25 05:27:10;;;;;;;9.88;2.72;;;8.70;99.90;;;;;;5094714;28;20020;-72
2022/11/25 05:29:36;;;;;;;10.57;3.88;;;8.70;99.90;;;;;;5093828;28;20093;-70
2022/11/25 05:32:02;;;;;;;11.95;3.85;;;8.70;99.90;;;;;;5093608;28;20032;-69
2022/11/25 05:34:28;;;;;;;11.32;3.88;;;8.70;99.90;;;;;;5075952;28;20039;-71
2022/11/25 05:36:53;;;;;;;7.38;3.15;;;8.70;99.90;;;;;;5093051;28;20020;-70
2022/11/25 05:39:19;;;;;;;12.55;3.75;;;8.70;99.90;;;;;;5092042;28;20028;-65
2022/11/25 05:41:45;;;;;;;10.13;3.78;;;8.70;99.90;;;;;;5092547;28;20032;-67
2022/11/25 05:44:10;;;;;;;13.20;5.32;;;8.80;99.90;;;;;;5094099;28;20027;-73
2022/11/25 05:46:36;;;;;;;15.77;4.90;;;8.80;99.90;;;;;;5073383;28;20024;-73
2022/11/25 05:49:02;;;;;;;12.70;4.80;;;8.80;99.90;;;;;;5091999;28;20024;-70
2022/11/25 05:51:28;;;;;;;15.93;5.95;;;8.80;99.90;;;;;;5092943;28;20024;-72
2022/11/25 05:53:54;;;;;;;22.13;7.57;;;8.80;99.90;;;;;;5092561;28;20055;-72
2022/11/25 05:56:20;;;;;;;14.18;7.85;;;8.80;99.90;;;;;;5093560;28;20111;-73
2022/11/25 05:58:46;;;;;;;19.23;8.48;;;8.80;99.90;;;;;;5092763;28;20176;-72
2022/11/25 06:01:13;;;;;;;15.90;6.22;;;8.80;99.90;;;;;;5093336;28;20031;-72
2022/11/25 06:03:39;;;;;;;16.67;7.00;;;8.80;99.90;;;;;;5075038;28;20364;-71
2022/11/25 06:06:06;;;;;;;16.98;7.65;;;8.80;99.90;;;;;;5093565;28;20028;-72
2022/11/25 06:08:32;;;;;;;20.08;7.75;;;8.80;99.90;;;;;;5092551;28;20038;-71
2022/11/25 06:10:58;;;;;;;16.17;6.68;;;8.70;99.90;;;;;;5093509;28;20020;-72
2022/11/25 06:13:24;;;;;;;14.30;5.53;;;8.70;99.90;;;;;;5092975;28;20589;-71
2022/11/25 06:15:50;;;;;;;20.52;6.18;;;8.70;99.90;;;;;;5074481;28;20044;-72
2022/11/25 06:18:16;;;;;;;12.25;5.55;;;8.70;99.90;;;;;;5093355;28;20081;-73
2022/11/25 06:20:42;;;;;;;22.05;6.90;;;8.60;99.90;;;;;;5092692;28;20024;-73
2022/11/25 06:23:08;;;;;;;19.33;7.07;;;8.60;99.90;;;;;;5092875;28;20472;-72
2022/11/25 06:25:35;;;;;;;20.58;7.57;;;8.60;99.90;;;;;;5093190;28;20034;-73
2022/11/25 06:28:02;;;;;;;16.20;7.22;;;8.60;99.90;;;;;;5092679;28;20349;-69
2022/11/25 06:30:28;;;;;;;18.25;7.10;;;8.50;99.90;;;;;;5090910;28;20027;-69
2022/11/25 06:32:54;;;;;;;22.60;6.95;;;8.50;99.90;;;;;;5093037;28;20077;-72
2022/11/25 06:35:20;;;;;;;14.02;5.78;;;8.50;99.90;;;;;;5092607;28;20019;-72
2022/11/25 06:37:46;;;;;;;11.40;4.55;;;8.50;99.90;;;;;;5092387;28;20020;-71
2022/11/25 06:40:12;;;;;;;13.10;5.55;;;8.50;99.90;;;;;;5108732;28;20039;-70
2022/11/25 06:42:38;;;;;;;14.27;5.70;;;8.50;99.90;;;;;;5091993;28;20023;-73
2022/11/25 06:45:05;;;;;;;14.25;6.47;;;8.50;99.90;;;;;;5092895;28;20024;-73
2022/11/25 06:47:31;;;;;;;19.77;7.10;;;8.40;99.90;;;;;;5092524;28;20027;-72
2022/11/25 06:49:56;;;;;;;16.25;7.28;;;8.30;99.90;;;;;;5092283;28;20020;-72
2022/11/25 06:52:22;;;;;;;15.27;7.20;;;8.30;99.90;;;;;;5092457;28;20024;-69
2022/11/25 06:54:50;;;;;;;14.88;7.03;;;8.30;99.90;;;;;;5092728;28;20536;-68
2022/11/25 06:57:17;;;;;;;20.48;5.85;;;8.20;99.90;;;;;;5074264;28;20035;-68
2022/11/25 06:59:43;;;;;;;14.68;6.57;;;8.10;99.90;;;;;;5104024;28;20395;-70
2022/11/25 07:02:11;;;;;;;21.42;7.82;;;8.10;99.90;;;;;;5105212;28;20456;-69
2022/11/25 07:04:36;;;;;;;17.42;7.15;;;8.00;99.90;;;;;;5078774;28;20035;-72
2022/11/25 07:07:02;;;;;;;21.33;8.68;;;7.90;99.90;;;;;;5094964;28;20031;-71
2022/11/25 07:09:28;;;;;;;17.65;6.97;;;7.90;99.90;;;;;;5101561;28;20379;-71
2022/11/25 07:11:54;;;;;;;15.60;7.28;;;7.80;99.90;;;;;;5073769;28;20026;-71
2022/11/25 07:14:19;;;;;;;16.40;8.05;;;7.80;99.90;;;;;;5092659;28;20020;-64
2022/11/25 07:16:45;;;;;;;15.70;7.03;;;7.70;99.90;;;;;;5091973;28;20060;-72
2022/11/25 07:19:14;;;;;;;15.77;6.03;;;7.70;99.90;;;;;;5091862;28;20366;-70
2022/11/25 07:21:40;;;;;;;13.75;5.15;;;7.70;99.90;;;;;;5092398;28;20052;-69
2022/11/25 07:24:06;;;;;;;12.85;4.40;;;7.70;99.90;;;;;;5103985;28;20039;-71
2022/11/25 07:26:36;;;;;;;7.47;4.32;;;7.70;99.90;;;;;;5111996;28;20020;-73
2022/11/25 07:29:06;;;;;;;8.63;4.18;;;7.70;99.90;;;;;;5093244;28;20123;-72
2022/11/25 07:31:35;;;;;;;12.27;3.72;;;7.80;99.90;;;;;;5111333;28;20543;-69
2022/11/25 07:34:04;;;;;;;11.57;4.30;;;7.80;99.90;;;;;;5092116;28;20030;-72
2022/11/25 07:36:31;;;;;;;7.95;3.97;;;7.80;99.90;;;;;;5074489;28;20502;-70
2022/11/25 07:38:58;;;;;;;7.75;2.75;;;7.80;99.90;;;;;;5072246;28;20040;-70
2022/11/25 07:41:26;;;;;;;10.43;3.00;;;7.80;99.90;;;;;;5071110;28;20020;-68
2022/11/25 07:43:55;;;;;;;8.35;3.15;;;7.80;99.90;;;;;;5084474;28;20087;-69
2022/11/25 07:46:32;;;;;;;9.48;3.22;;;7.80;99.90;;;;;;5109624;28;20042;-69
2022/11/25 07:49:00;;;;;;;5.70;2.83;;;7.80;99.90;;;;;;5108718;28;20028;-67
2022/11/25 07:51:31;;;;;;;8.63;3.22;;;7.80;99.90;;;;;;5089367;28;20085;-67
2022/11/25 07:53:59;;;;;;;10.98;4.55;;;7.80;99.90;;;;;;5103832;28;20035;-69
2022/11/25 07:56:25;;;;;;;10.32;3.90;;;7.80;99.90;;;;;;5110049;28;20019;-66
2022/11/25 07:58:51;;;;;;;12.63;4.53;;;7.80;99.90;;;;;;5111104;28;20043;-66
2022/11/25 08:01:17;;;;;;;11.45;4.28;;;7.90;99.90;;;;;;5110055;28;20046;-65
2022/11/25 08:03:44;;;;;;;19.27;5.20;;;8.00;99.90;;;;;;5108949;28;20024;-69
2022/11/25 08:06:13;;;;;;;10.95;5.15;;;8.00;99.90;;;;;;5109194;28;20023;-68
2022/11/25 08:08:40;;;;;;;14.48;5.45;;;8.00;99.90;;;;;;5110323;28;20024;-65
2022/11/25 08:11:11;;;;;;;9.57;4.43;;;8.10;99.90;;;;;;5110744;28;20484;-70
2022/11/25 08:13:37;;;;;;;;;;;8.10;99.90;;;;;;5090028;28;20058;-70
2022/11/25 08:16:04;;;;;;;11.63;5.05;;;8.20;99.90;;;;;;5104376;28;19919;-72
2022/11/25 08:18:29;;;;;;;10.52;5.03;;;8.20;99.90;;;;;;5107872;28;20122;-70
2022/11/25 08:21:03;;;;;;;9.85;4.15;;;8.10;99.90;;;;;;5105412;28;20103;-72
2022/11/25 08:23:30;;;;;;;9.30;5.15;;;8.10;99.90;;;;;;5093557;28;20020;-65
2022/11/25 08:25:56;;;;;;;13.32;5.82;;;8.00;99.90;;;;;;5090434;28;20551;-75
2022/11/25 08:28:22;;;;;;;15.48;5.95;;;7.90;99.90;;;;;;5110554;28;20034;-70
2022/11/25 08:30:48;;;;;;;7.82;3.95;;;7.90;99.90;;;;;;5110950;28;20031;-76
2022/11/25 08:33:14;;;;;;;10.32;5.38;;;7.90;99.90;;;;;;5108855;28;20027;-72
2022/11/25 08:35:39;;;;;;;11.07;4.55;;;7.90;99.90;;;;;;5106743;28;20082;-73
2022/11/25 08:38:06;;;;;;;12.40;5.10;;;7.80;99.90;;;;;;5105803;28;20374;-79
2022/11/25 08:40:33;;;;;;;10.15;5.07;;;7.80;99.90;;;;;;5092596;28;20105;-79
2022/11/25 08:42:59;;;;;;;12.70;4.55;;;7.80;99.90;;;;;;5089752;28;20097;-79
2022/11/25 08:45:25;;;;;;;10.50;3.58;;;7.90;99.90;;;;;;5094380;28;20024;-78
2022/11/25 08:47:50;;;;;;;10.70;4.43;;;7.80;99.90;;;;;;5078422;28;20024;-80
2022/11/25 08:50:16;;;;;;;7.70;4.22;;;7.90;99.90;;;;;;5107767;28;20030;-82
2022/11/25 08:52:42;;;;;;;11.48;3.92;;;7.90;99.90;;;;;;5112162;28;20458;-79
2022/11/25 08:55:09;;;;;;;10.65;3.95;;;8.00;99.90;;;;;;5104001;28;20019;-76
2022/11/25 08:57:34;;;;;;;7.75;3.50;;;8.00;99.90;;;;;;5091953;28;20016;-78
2022/11/25 09:00:00;;;;;;;16.60;5.05;;;8.00;99.90;;;;;;5110833;28;20415;-74
2022/11/25 09:02:26;;;;;;;7.55;3.55;;;8.10;99.90;;;;;;5093701;28;20055;-73
2022/11/25 09:04:51;;;;;;;8.82;3.47;;;8.10;99.90;;;;;;5096131;28;20476;-76
2022/11/25 09:07:17;;;;;;;12.38;3.30;;;8.10;99.90;;;;;;5076764;28;20107;-72
2022/11/25 09:09:43;;;;;;;12.00;3.88;;;8.10;99.90;;;;;;5109569;28;20523;-72
2022/11/25 09:12:09;;;;;;;6.20;3.30;;;8.20;99.90;;;;;;5095403;28;20020;-76
2022/11/25 09:14:34;;;;;;;5.78;2.72;;;8.20;99.90;;;;;;5094762;28;20012;-73
2022/11/25 09:17:00;;;;;;;6.78;3.03;;;8.20;99.90;;;;;;5094447;28;20183;-76
2022/11/25 09:19:27;;;;;;;10.57;3.40;;;8.30;99.90;;;;;;5094420;28;20034;-74
2022/11/25 09:21:53;;;;;;;8.13;3.40;;;8.30;99.90;;;;;;5094851;28;20024;-76
2022/11/25 09:24:19;;;;;;;11.77;3.28;;;8.40;99.90;;;;;;5094351;28;20021;-75
2022/11/25 09:26:45;;;;;;;7.28;3.10;;;8.40;99.90;;;;;;5094363;28;20460;-76
2022/11/25 09:29:12;;;;;;;7.85;3.10;;;8.40;99.90;;;;;;5094863;28;20023;-75
2022/11/25 09:31:38;;;;;;;6.53;3.30;;;8.40;99.90;;;;;;5093747;28;20031;-73
2022/11/25 09:34:04;;;;;;;10.88;3.72;;;8.50;99.90;;;;;;5110382;28;20027;-72
2022/11/25 09:36:29;;;;;;;8.32;3.38;;;8.60;99.90;;;;;;5094581;28;20028;-75
2022/11/25 09:38:55;;;;;;;8.85;3.15;;;8.60;99.90;;;;;;5093879;28;20035;-76
2022/11/25 09:48:36;;;;;;;9.75;3.92;;;8.70;99.90;;;;;;5087118;28;20035;-74
2022/11/25 09:51:17;;;;;;;6.43;2.90;;;8.80;99.90;;;;;;5094442;28;20016;-72
2022/11/25 09:53:45;;;;;;;8.48;3.58;;;8.80;99.90;;;;;;5093095;28;20028;-74
2022/11/25 09:56:34;;;;;;;11.50;3.55;;;8.80;99.90;;;;;;5093500;28;20056;-75
2022/11/25 09:59:18;;;;;;;9.27;3.30;;;8.80;99.90;;;;;;5093154;28;20436;-70
2022/11/25 10:02:12;;;;;;;6.97;3.25;;;8.80;99.90;;;;;;5093773;28;20636;-70
2022/11/25 10:04:48;;;;;;;15.32;3.70;;;8.90;99.90;;;;;;5093673;28;20028;-67
2022/11/25 10:07:21;;;;;;;6.38;3.30;;;8.90;99.90;;;;;;5093521;28;20103;-71
2022/11/25 10:09:47;;;;;;;7.88;2.95;;;8.90;99.90;;;;;;5093618;28;20028;-72
2022/11/25 10:12:24;;;;;;;7.45;3.47;;;9.00;99.90;;;;;;5094111;28;20025;-72
2022/11/25 10:15:04;;;;;;;7.03;3.20;;;9.00;99.90;;;;;;5093222;28;20027;-74
2022/11/25 10:17:43;;;;;;;7.60;2.53;;;9.10;99.90;;;;;;5093463;28;20028;-73
2022/11/25 10:20:18;;;;;;;6.20;3.10;;;9.10;99.90;;;;;;5093018;28;20380;-74
2022/11/25 10:22:47;;;;;;;8.50;3.33;;;9.10;99.90;;;;;;5074978;28;20028;-69
2022/11/25 10:25:17;;;;;;;10.00;3.03;;;9.10;99.90;;;;;;5109497;28;20495;-74
2022/11/25 10:27:58;;;;;;;10.32;3.40;;;9.20;99.90;;;;;;5108435;28;20461;-68
2022/11/25 10:30:37;;;;;;;10.25;3.25;;;9.20;99.90;;;;;;5093421;28;20021;-73
2022/11/25 10:33:22;;;;;;;9.65;3.10;;;9.20;99.90;;;;;;5093630;28;20039;-76
2022/11/25 10:35:50;;;;;;;9.27;3.28;;;9.30;99.90;;;;;;5092998;28;20031;-75
2022/11/25 10:39:00;;;;;;;10.07;3.30;;;9.30;99.90;;;;;;5093719;28;20031;-74
2022/11/25 10:41:32;;;;;;;5.72;2.80;;;9.30;99.90;;;;;;5074419;28;20070;-75
2022/11/25 10:43:57;;;;;;;8.50;3.30;;;9.30;99.90;;;;;;5093381;28;20111;-72
2022/11/25 10:46:39;;;;;;;7.32;3.08;;;9.40;99.90;;;;;;5074809;28;20056;-74
2022/11/25 10:49:23;;;;;;;6.07;2.80;;;9.40;99.90;;;;;;5092792;28;20430;-75
2022/11/25 10:51:50;;;;;;;5.95;2.60;;;9.50;99.90;;;;;;5093343;28;20024;-76
2022/11/25 10:54:24;;;;;;;10.93;3.30;;;9.50;99.90;;;;;;5074948;28;20024;-74
2022/11/25 10:56:51;;;;;;;8.02;2.63;;;9.50;99.90;;;;;;5092556;28;20040;-75
2022/11/25 10:59:38;;;;;;;6.63;2.70;;;9.60;99.90;;;;;;5074963;28;20036;-75
2022/11/25 11:02:12;;;;;;;7.90;2.78;;;9.60;99.90;;;;;;5108534;28;20107;-76
2022/11/25 11:04:53;;;;;;;8.63;2.72;;;9.70;99.90;;;;;;5092775;28;20034;-75
2022/11/25 11:07:19;;;;;;;8.05;3.15;;;9.70;99.90;;;;;;5093070;28;20028;-75
2022/11/25 11:09:45;;;;;;;6.68;3.05;;;9.70;99.90;;;;;;5091880;28;20043;-75
2022/11/25 11:12:24;;;;;;;7.25;2.75;;;9.70;99.90;;;;;;5092758;28;20479;-74
2022/11/25 11:14:51;;;;;;;6.82;2.95;;;9.70;99.90;;;;;;5092723;28;20019;-75
2022/11/25 11:17:33;;;;;;;10.07;2.78;;;9.70;99.90;;;;;;5092004;28;20135;-75
2022/11/25 11:20:03;;;;;;;9.48;3.30;;;9.80;99.90;;;;;;5092900;28;20058;-76
2022/11/25 11:22:30;;;;;;;6.20;2.65;;;9.80;99.90;;;;;;5092373;28;20016;-75
2022/11/25 11:25:22;;;;;;;10.05;3.15;;;9.80;99.90;;;;;;5092100;28;20027;-74
2022/11/25 11:27:48;;;;;;;10.98;3.05;;;9.90;99.90;;;;;;5092417;28;20518;-76
2022/11/25 11:30:23;;;;;;;8.23;2.97;;;10.00;99.90;;;;;;5092707;28;20078;-75
2022/11/25 11:33:26;;;;;;;12.85;3.05;;;10.00;99.90;;;;;;5092663;28;20043;-76
2022/11/25 11:36:01;;;;;;;5.85;2.95;;;10.00;99.90;;;;;;5074431;28;20388;-72
2022/11/25 11:38:37;;;;;;;7.68;3.22;;;10.00;99.90;;;;;;5091568;28;20027;-73
2022/11/25 11:41:26;;;;;;;12.73;3.25;;;10.10;99.90;;;;;;5092428;28;20137;-77
2022/11/25 11:44:31;;;;;;;7.10;2.83;;;10.10;99.90;;;;;;5092372;28;20094;-77
2022/11/25 11:47:13;;;;;;;7.65;2.58;;;10.10;99.90;;;;;;5081436;28;20369;-70
2022/11/25 11:50:02;;;;;;;5.38;2.22;;;10.20;99.90;;;;;;5092108;28;20375;-74
2022/11/25 11:52:37;;;;;;;11.02;3.45;;;10.20;99.90;;;;;;5091507;28;20028;-71
2022/11/25 11:55:31;;;;;;;8.60;2.78;;;10.20;99.90;;;;;;5092455;28;20024;-76
2022/11/25 11:58:13;;;;;;;10.32;3.33;;;10.20;99.90;;;;;;5092354;28;20056;-76
2022/11/25 12:00:53;;;;;;;10.55;2.92;;;10.30;99.90;;;;;;5091264;28;20020;-74
2022/11/25 12:03:26;;;;;;;5.80;2.80;;;10.30;99.90;;;;;;5092022;28;20060;-75
2022/11/25 12:05:54;;;;;;;9.90;3.00;;;10.40;99.90;;;;;;5091453;28;20028;-75
2022/11/25 12:08:49;;;;;;;10.15;3.75;;;10.40;99.90;;;;;;5092202;28;20047;-75
2022/11/25 12:11:23;;;;;;;8.30;3.28;;;10.40;99.90;;;;;;5092175;28;20030;-75
2022/11/25 12:13:57;;;;;;;9.30;3.38;;;10.40;99.90;;;;;;5091402;28;20024;-73
2022/11/25 12:16:32;;;;;;;10.63;2.65;;;10.50;99.90;;;;;;5091850;28;20052;-62
2022/11/25 12:19:10;;;;;;;6.90;2.95;;;10.60;99.90;;;;;;5075278;28;20487;-73
2022/11/25 12:21:40;;;;;;;9.68;2.72;;;10.60;99.90;;;;;;5095164;28;20023;-73
2022/11/25 12:24:18;;;;;;;6.95;2.47;;;10.60;99.90;;;;;;5096030;28;20024;-76
2022/11/25 12:27:05;;;;;;;9.23;2.47;;;10.60;99.90;;;;;;5095074;28;20549;-76
2022/11/25 12:29:44;;;;;;;6.10;2.45;;;10.60;99.90;;;;;;5095755;28;20032;-75
2022/11/25 12:32:28;;;;;;;6.15;2.40;;;10.60;99.90;;;;;;5098263;28;20546;-77
2022/11/25 12:35:08;;;;;;;7.88;2.50;;;10.50;99.90;;;;;;5096602;28;20027;-71
2022/11/25 12:37:37;;;;;;;7.28;2.53;;;10.50;99.90;;;;;;5116013;28;20137;-78
2022/11/25 12:40:39;;;;;;;9.05;2.70;;;10.50;99.90;;;;;;5097154;28;20066;-78
2022/11/25 12:43:27;;;;;;;7.68;3.65;;;10.50;99.90;;;;;;5063971;28;20483;-80
2022/11/25 12:46:12;;;;;;;9.50;2.60;;;10.50;99.90;;;;;;5083590;28;20542;-76
2022/11/25 12:48:40;;;;;;;10.85;3.53;;;10.50;99.90;;;;;;5113338;28;20032;-76
2022/11/25 12:51:41;;;;;;;8.27;2.97;;;10.50;99.90;;;;;;5096786;28;20020;-75
2022/11/25 12:54:28;;;;;;;8.03;2.97;;;10.60;99.90;;;;;;5108366;28;20036;-80
2022/11/25 12:57:21;;;;;;;6.75;2.83;;;10.60;99.90;;;;;;5104551;28;20139;-84
2022/11/25 13:00:05;;;;;;;10.30;2.53;;;10.70;99.90;;;;;;5079878;28;20042;-69
2022/11/25 13:02:57;;;;;;;9.80;4.00;;;10.70;99.90;;;;;;5073353;28;20036;-75
2022/11/25 13:05:48;;;;;;;7.25;3.13;;;10.70;99.90;;;;;;5084892;28;20017;-66
2022/11/25 13:08:51;;;;;;;7.45;2.70;;;10.80;99.90;;;;;;5111053;28;20100;-81
2022/11/25 13:11:28;;;;;;;6.18;2.35;;;10.80;99.90;;;;;;5101365;28;20464;-79
2022/11/25 13:14:24;;;;;;;6.93;2.75;;;10.80;99.90;;;;;;5096351;28;20023;-76